Time;durP1;ratioP1;P1;durP2;ratioP2;P2;SDS_P1;SDS_P2;PMS_P1;PMS_P2;Temp;Humidity;BMP_temperature;BMP_pressure;BME280_temperature;BME280_humidity;BME280_pressure;Samples;Min_cycle;Max_cycle;Signal;HPM_P1;HPM_P2
2022/05/19 00:01:20;;;;;;;19.35;11.88;;;;;;;;;;5096954;27;96777;-73
2022/05/19 00:03:46;;;;;;;21.20;13.13;;;;;;;;;;5091754;27;97254;-73
2022/05/19 00:06:13;;;;;;;21.20;12.85;;;;;;;;;;5092169;27;95292;-73
2022/05/19 00:08:39;;;;;;;24.83;12.77;;;;;;;;;;5090796;27;96792;-76
2022/05/19 00:11:09;;;;;;;20.63;12.27;;;;;;;;;;5099433;27;97356;-76
2022/05/19 00:13:35;;;;;;;30.80;12.15;;;;;;;;;;5095656;27;96512;-73
2022/05/19 00:16:01;;;;;;;24.35;12.40;;;;;;;;;;5091908;27;97093;-73
2022/05/19 00:18:28;;;;;;;20.95;13.85;;;;;;;;;;5091474;27;96360;-74
2022/05/19 00:20:54;;;;;;;29.70;12.93;;;;;;;;;;5078487;27;97224;-74
2022/05/19 00:23:20;;;;;;;35.38;12.73;;;;;;;;;;5073108;27;97238;-72
2022/05/19 00:25:47;;;;;;;20.83;13.32;;;;;;;;;;5091877;27;95288;-74
2022/05/19 00:28:14;;;;;;;24.13;13.20;;;;;;;;;;5091516;27;95938;-74
2022/05/19 00:30:41;;;;;;;21.63;13.13;;;;;;;;;;5091094;27;97254;-74
2022/05/19 00:33:08;;;;;;;21.52;13.77;;;;;;;;;;5098795;27;95202;-74
2022/05/19 00:35:38;;;;;;;38.80;13.20;;;;;;;;;;5095157;27;96729;-76
2022/05/19 00:38:05;;;;;;;25.25;14.40;;;;;;;;;;5091749;27;95773;-73
2022/05/19 00:40:32;;;;;;;23.42;14.45;;;;;;;;;;5103753;27;96821;-73
2022/05/19 00:42:58;;;;;;;21.35;13.95;;;;;;;;;;5116619;27;96307;-72
2022/05/19 00:45:40;;;;;;;20.55;13.70;;;;;;;;;;5094581;27;95351;-72
2022/05/19 00:48:15;;;;;;;22.15;14.40;;;;;;;;;;5087938;27;96778;-72
2022/05/19 00:50:45;;;;;;;22.13;14.13;;;;;;;;;;5097152;27;96966;-73
2022/05/19 00:53:15;;;;;;;25.17;14.23;;;;;;;;;;5087291;27;95179;-73
2022/05/19 00:55:46;;;;;;;27.63;14.27;;;;;;;;;;5094999;27;97255;-72
2022/05/19 00:58:16;;;;;;;41.05;15.18;;;;;;;;;;5097694;27;96158;-72
2022/05/19 01:00:43;;;;;;;21.73;14.50;;;;;;;;;;5099166;27;96461;-72
2022/05/19 01:03:10;;;;;;;28.90;15.07;;;;;;;;;;5097581;27;96300;-72
2022/05/19 01:05:38;;;;;;;29.98;15.07;;;;;;;;;;5094707;27;95404;-73
2022/05/19 01:08:07;;;;;;;24.98;15.00;;;;;;;;;;5094876;27;96836;-73
2022/05/19 01:10:33;;;;;;;29.40;15.27;;;;;;;;;;5093654;27;97375;-73
2022/05/19 01:12:59;;;;;;;46.58;15.38;;;;;;;;;;5100721;27;96330;-73
2022/05/19 01:15:26;;;;;;;24.20;15.30;;;;;;;;;;5095194;27;96858;-73
2022/05/19 01:17:52;;;;;;;25.17;16.15;;;;;;;;;;5094920;27;97586;-73
2022/05/19 01:20:20;;;;;;;35.38;15.48;;;;;;;;;;5097302;27;95771;-73
2022/05/19 01:22:58;;;;;;;30.52;17.35;;;;;;;;;;5081005;27;95199;-73
2022/05/19 01:25:28;;;;;;;28.67;16.15;;;;;;;;;;5092556;27;95308;-74
2022/05/19 01:27:55;;;;;;;25.15;16.83;;;;;;;;;;5094288;27;97011;-72
2022/05/19 01:30:21;;;;;;;27.77;17.75;;;;;;;;;;5094270;27;97649;-73
2022/05/19 01:32:48;;;;;;;27.98;17.88;;;;;;;;;;5095036;27;95280;-73
2022/05/19 01:35:14;;;;;;;26.92;17.27;;;;;;;;;;5092894;27;96798;-72
2022/05/19 01:37:43;;;;;;;28.00;17.33;;;;;;;;;;5095063;27;97403;-72
2022/05/19 01:40:32;;;;;;;40.00;18.17;;;;;;;;;;5094171;27;95556;-74
2022/05/19 01:42:58;;;;;;;28.52;17.58;;;;;;;;;;5092772;27;96665;-75
2022/05/19 01:45:44;;;;;;;29.92;18.23;;;;;;;;;;5092353;27;95314;-76
2022/05/19 01:48:17;;;;;;;23.52;16.83;;;;;;;;;;5094503;27;96958;-73
2022/05/19 01:50:50;;;;;;;28.60;18.08;;;;;;;;;;5086829;27;97011;-73
2022/05/19 01:53:21;;;;;;;25.88;17.60;;;;;;;;;;5093798;27;95072;-72
2022/05/19 01:55:59;;;;;;;27.92;17.98;;;;;;;;;;5092883;27;96911;-73
2022/05/19 01:58:36;;;;;;;25.48;16.95;;;;;;;;;;5093725;27;97250;-74
2022/05/19 02:01:04;;;;;;;21.80;16.65;;;;;;;;;;5094788;27;95322;-73
2022/05/19 02:03:42;;;;;;;25.00;17.42;;;;;;;;;;5093683;27;97242;-73
2022/05/19 02:06:11;;;;;;;27.95;17.58;;;;;;;;;;5095254;27;97305;-73
2022/05/19 02:08:42;;;;;;;26.33;17.70;;;;;;;;;;5084827;27;96669;-73
2022/05/19 02:11:10;;;;;;;29.52;18.58;;;;;;;;;;5093670;27;97497;-73
2022/05/19 02:13:36;;;;;;;31.38;18.00;;;;;;;;;;5093824;27;95245;-72
2022/05/19 02:16:04;;;;;;;28.75;16.98;;;;;;;;;;5095638;27;97318;-72
2022/05/19 02:18:31;;;;;;;22.73;17.73;;;;;;;;;;5093672;27;97795;-73
2022/05/19 02:20:59;;;;;;;46.72;18.70;;;;;;;;;;5093301;27;95405;-73
2022/05/19 02:23:26;;;;;;;31.52;18.45;;;;;;;;;;5090227;27;97059;-73
2022/05/19 02:25:53;;;;;;;35.22;18.35;;;;;;;;;;5096317;27;97688;-73
2022/05/19 02:28:25;;;;;;;29.05;18.58;;;;;;;;;;5092579;27;96411;-73
2022/05/19 02:30:51;;;;;;;;;;;;;;;;;;5093099;27;97318;-73
2022/05/19 02:33:17;;;;;;;32.80;17.20;;;;;;;;;;5093533;27;118782;-73
2022/05/19 02:35:44;;;;;;;28.10;17.67;;;;;;;;;;5092632;27;96148;-73
2022/05/19 02:38:12;;;;;;;35.92;18.05;;;;;;;;;;5093347;27;96991;-75
2022/05/19 02:40:39;;;;;;;34.13;17.48;;;;;;;;;;5092971;27;95347;-74
2022/05/19 02:43:06;;;;;;;26.83;17.65;;;;;;;;;;5094007;27;97304;-73
2022/05/19 02:45:33;;;;;;;38.95;18.17;;;;;;;;;;5093106;27;97237;-73
2022/05/19 02:47:59;;;;;;;28.92;17.58;;;;;;;;;;5096424;27;95580;-74
2022/05/19 02:50:26;;;;;;;30.83;18.35;;;;;;;;;;5092569;27;97326;-72
2022/05/19 02:52:52;;;;;;;30.08;18.80;;;;;;;;;;5093033;27;95278;-75
2022/05/19 02:55:19;;;;;;;31.67;18.52;;;;;;;;;;5084612;27;96297;-74
2022/05/19 02:57:47;;;;;;;32.60;20.90;;;;;;;;;;5093859;27;97172;-73
2022/05/19 03:00:15;;;;;;;28.58;21.15;;;;;;;;;;5093142;27;95618;-73
2022/05/19 03:02:42;;;;;;;32.78;22.50;;;;;;;;;;5092936;27;97112;-73
2022/05/19 03:05:09;;;;;;;35.53;23.35;;;;;;;;;;5091952;27;97466;-72
2022/05/19 03:07:36;;;;;;;37.50;21.73;;;;;;;;;;5090962;27;95405;-72
2022/05/19 03:10:03;;;;;;;31.35;19.85;;;;;;;;;;5095718;27;97310;-72
2022/05/19 03:12:29;;;;;;;33.17;21.63;;;;;;;;;;5092309;27;96388;-72
2022/05/19 03:14:56;;;;;;;36.67;23.27;;;;;;;;;;5092565;27;95716;-73
2022/05/19 03:17:24;;;;;;;35.83;23.77;;;;;;;;;;5097735;27;97370;-73
2022/05/19 03:19:54;;;;;;;38.78;26.13;;;;;;;;;;5097805;27;95584;-75
2022/05/19 03:22:21;;;;;;;35.03;19.92;;;;;;;;;;5092895;27;96379;-75
2022/05/19 03:24:47;;;;;;;24.05;13.95;;;;;;;;;;5093918;27;97371;-75
2022/05/19 03:27:14;;;;;;;29.40;14.82;;;;;;;;;;5096870;27;95465;-74
2022/05/19 03:29:40;;;;;;;19.63;12.18;;;;;;;;;;5092320;27;98226;-73
2022/05/19 03:32:07;;;;;;;17.90;11.02;;;;;;;;;;5095617;27;97832;-73
2022/05/19 03:34:33;;;;;;;19.50;10.10;;;;;;;;;;5092367;27;96606;-73
2022/05/19 03:37:02;;;;;;;17.95;8.70;;;;;;;;;;5090270;27;96399;-72
2022/05/19 03:39:28;;;;;;;13.00;6.90;;;;;;;;;;5092285;27;96399;-72
2022/05/19 03:41:55;;;;;;;9.80;5.03;;;;;;;;;;5097405;27;96859;-73
2022/05/19 03:44:21;;;;;;;10.05;5.30;;;;;;;;;;5092615;27;98773;-76
2022/05/19 03:46:47;;;;;;;10.63;3.95;;;;;;;;;;5092784;27;95168;-75
2022/05/19 03:49:14;;;;;;;7.68;3.45;;;;;;;;;;5093961;27;95588;-76
2022/05/19 03:51:41;;;;;;;7.22;3.10;;;;;;;;;;5093154;27;97242;-77
2022/05/19 03:54:07;;;;;;;7.28;2.65;;;;;;;;;;5094882;27;95321;-74
2022/05/19 03:56:33;;;;;;;6.60;3.25;;;;;;;;;;5092436;27;97266;-74
2022/05/19 03:59:00;;;;;;;6.00;2.40;;;;;;;;;;5092702;27;95414;-73
2022/05/19 04:01:39;;;;;;;6.78;2.05;;;;;;;;;;5088578;27;96048;-73
2022/05/19 04:04:07;;;;;;;;;;;;;;;;;;5069178;27;97808;-75
2022/05/19 04:06:36;;;;;;;4.30;2.10;;;;;;;;;;5072101;27;118259;-73
2022/05/19 04:09:03;;;;;;;6.78;2.75;;;;;;;;;;5070078;27;99775;-73
2022/05/19 04:11:30;;;;;;;4.22;2.17;;;;;;;;;;5092489;27;97322;-73
2022/05/19 04:13:56;;;;;;;4.75;2.67;;;;;;;;;;5092463;27;96021;-72
2022/05/19 04:16:22;;;;;;;8.45;2.53;;;;;;;;;;5097934;27;96791;-73
2022/05/19 04:18:49;;;;;;;5.07;2.60;;;;;;;;;;5098502;27;95182;-78
2022/05/19 04:21:15;;;;;;;9.57;2.38;;;;;;;;;;5078228;27;96797;-73
2022/05/19 04:23:42;;;;;;;8.05;3.10;;;;;;;;;;5095581;27;97302;-72
2022/05/19 20:05:21;;;;;;;28.73;15.15;;;;;;;;;;4996251;27;1464620;-72
2022/05/19 20:07:47;;;;;;;26.30;15.13;;;;;;;;;;5012145;28;97284;-73
2022/05/19 20:10:15;;;;;;;28.25;15.18;;;;;;;;;;5023717;28;95688;-72
2022/05/19 20:12:42;;;;;;;30.30;15.82;;;;;;;;;;5027115;28;96773;-72
2022/05/19 20:15:09;;;;;;;30.05;14.68;;;;;;;;;;5028335;28;97026;-73
2022/05/19 20:17:35;;;;;;;30.10;13.75;;;;;;;;;;5019254;28;95486;-71
2022/05/19 20:20:03;;;;;;;27.02;13.68;;;;;;;;;;5017473;28;96653;-72
2022/05/19 20:22:29;;;;;;;31.67;14.25;;;;;;;;;;5022523;28;97452;-71
2022/05/19 20:24:56;;;;;;;23.55;13.52;;;;;;;;;;5030252;28;96225;-71
2022/05/19 20:27:22;;;;;;;27.70;13.15;;;;;;;;;;5023051;28;97192;-72
2022/05/19 20:29:48;;;;;;;25.75;12.23;;;;;;;;;;5025762;28;95330;-73
2022/05/19 20:32:15;;;;;;;23.15;13.05;;;;;;;;;;5024358;28;96581;-71
2022/05/19 20:34:41;;;;;;;22.45;12.48;;;;;;;;;;5027396;28;97378;-72
2022/05/19 20:37:08;;;;;;;22.75;11.15;;;;;;;;;;5025253;28;95356;-71
2022/05/19 20:39:37;;;;;;;23.00;11.57;;;;;;;;;;5013947;28;95724;-72
2022/05/19 20:42:04;;;;;;;20.55;11.02;;;;;;;;;;5025420;28;97363;-71
2022/05/19 20:44:30;;;;;;;23.90;10.93;;;;;;;;;;5027183;28;95197;-71
2022/05/19 20:46:57;;;;;;;16.30;10.50;;;;;;;;;;5018612;28;97305;-71
2022/05/19 20:49:24;;;;;;;21.58;11.30;;;;;;;;;;5017117;28;95379;-71
2022/05/19 20:51:50;;;;;;;22.00;11.30;;;;;;;;;;5028126;28;96816;-71
2022/05/19 20:54:18;;;;;;;19.85;10.52;;;;;;;;;;5021205;27;97470;-72
2022/05/19 20:56:44;;;;;;;22.80;12.07;;;;;;;;;;5007352;28;94975;-72
2022/05/19 20:59:10;;;;;;;25.10;11.68;;;;;;;;;;5024998;28;96954;-71
2022/05/19 21:01:37;;;;;;;26.42;12.80;;;;;;;;;;5026549;28;97416;-71
2022/05/19 21:04:03;;;;;;;23.52;12.15;;;;;;;;;;5023254;28;95438;-71
2022/05/19 21:06:30;;;;;;;29.38;12.70;;;;;;;;;;5027122;28;96948;-71
2022/05/19 21:08:56;;;;;;;21.17;13.27;;;;;;;;;;5029204;28;97392;-71
2022/05/19 21:11:22;;;;;;;24.42;13.00;;;;;;;;;;5019785;28;96825;-71
2022/05/19 21:13:49;;;;;;;18.70;11.18;;;;;;;;;;5010927;28;97376;-71
2022/05/19 21:16:34;;;;;;;19.02;11.38;;;;;;;;;;5004278;28;95170;-71
2022/05/19 21:19:00;;;;;;;23.50;12.40;;;;;;;;;;4999652;28;96771;-71
2022/05/19 21:21:26;;;;;;;21.00;12.13;;;;;;;;;;4998829;28;97379;-71
2022/05/19 21:26:38;;;;;;;20.77;11.68;;;;;;;;;;5012918;28;96856;-71
2022/05/19 21:29:04;;;;;;;31.75;12.25;;;;;;;;;;5010146;28;97363;-70
2022/05/19 21:31:30;;;;;;;21.30;11.50;;;;;;;;;;5015587;28;95316;-70
2022/05/19 21:33:59;;;;;;;24.67;12.27;;;;;;;;;;5013024;28;97344;-70
2022/05/19 21:36:26;;;;;;;20.60;11.27;;;;;;;;;;5013765;28;95330;-71
2022/05/19 21:38:52;;;;;;;20.58;11.07;;;;;;;;;;5013446;28;96722;-71
2022/05/19 21:41:19;;;;;;;20.10;11.73;;;;;;;;;;5013425;28;96331;-72
2022/05/19 21:43:45;;;;;;;23.50;11.48;;;;;;;;;;5012458;28;95269;-71
2022/05/19 21:46:12;;;;;;;21.25;11.77;;;;;;;;;;5007314;28;97055;-71
2022/05/19 21:48:38;;;;;;;20.80;11.10;;;;;;;;;;5013836;28;97327;-72
2022/05/19 21:56:35;;;;;;;18.85;11.68;;;;;;;;;;5009174;28;95276;-72
2022/05/19 21:59:01;;;;;;;19.90;11.35;;;;;;;;;;4999006;28;96817;-72
2022/05/19 22:01:27;;;;;;;30.83;11.95;;;;;;;;;;5013319;28;97174;-71
2022/05/19 22:03:54;;;;;;;39.53;11.65;;;;;;;;;;5010805;28;95507;-71
2022/05/19 22:09:05;;;;;;;23.70;11.40;;;;;;;;;;4997077;28;96214;-71
2022/05/19 22:11:32;;;;;;;21.80;10.88;;;;;;;;;;4959212;28;95447;-71
2022/05/19 22:13:58;;;;;;;20.75;11.27;;;;;;;;;;5010099;28;96321;-70
2022/05/19 22:16:31;;;;;;;23.80;11.45;;;;;;;;;;5015386;28;95318;-71
2022/05/19 22:18:57;;;;;;;18.27;10.70;;;;;;;;;;5003753;28;96878;-71
2022/05/19 22:21:24;;;;;;;25.60;11.82;;;;;;;;;;4992907;28;98017;-71
2022/05/19 22:23:50;;;;;;;17.70;11.02;;;;;;;;;;5003445;28;96614;-71
2022/05/19 22:26:17;;;;;;;22.83;11.20;;;;;;;;;;5011691;28;96983;-71
2022/05/19 22:28:44;;;;;;;20.98;11.07;;;;;;;;;;5011957;28;97200;-70
2022/05/19 22:31:10;;;;;;;44.78;12.43;;;;;;;;;;5013518;28;95290;-72
2022/05/19 22:33:38;;;;;;;68.13;13.88;;;;;;;;;;5010057;28;97261;-71
2022/05/19 22:36:05;;;;;;;46.47;13.18;;;;;;;;;;5012876;28;97614;-71
2022/05/19 22:38:33;;;;;;;37.78;13.35;;;;;;;;;;4993288;28;96386;-70
2022/05/19 22:41:00;;;;;;;75.43;14.27;;;;;;;;;;4992701;28;97206;-71
2022/05/19 22:43:26;;;;;;;59.40;13.68;;;;;;;;;;5001152;28;96708;-71
2022/05/19 22:45:53;;;;;;;32.78;12.57;;;;;;;;;;5012184;28;96938;-71
2022/05/19 22:48:19;;;;;;;29.63;12.75;;;;;;;;;;5012812;28;97427;-71
2022/05/19 22:50:46;;;;;;;29.88;14.23;;;;;;;;;;5011956;28;95183;-71
2022/05/19 22:53:12;;;;;;;18.55;11.57;;;;;;;;;;4993106;28;96812;-71
2022/05/19 22:55:39;;;;;;;19.48;12.20;;;;;;;;;;4996528;28;96321;-71
2022/05/19 22:58:06;;;;;;;20.42;11.68;;;;;;;;;;5012446;28;96593;-70
2022/05/19 23:00:33;;;;;;;18.30;12.38;;;;;;;;;;4992206;28;97068;-70
2022/05/19 23:03:00;;;;;;;58.53;13.57;;;;;;;;;;5000099;28;96143;-70
2022/05/19 23:05:27;;;;;;;33.83;13.00;;;;;;;;;;5012135;28;95381;-71
2022/05/19 23:07:54;;;;;;;46.28;15.32;;;;;;;;;;5011292;28;96491;-71
2022/05/19 23:10:22;;;;;;;30.52;13.05;;;;;;;;;;5011502;28;95449;-71
2022/05/19 23:12:48;;;;;;;58.63;14.48;;;;;;;;;;5012604;28;95805;-70
2022/05/19 23:15:16;;;;;;;59.05;15.18;;;;;;;;;;5012261;28;97324;-71
2022/05/19 23:17:43;;;;;;;27.08;13.68;;;;;;;;;;5009640;28;96887;-71
2022/05/19 23:20:12;;;;;;;25.42;13.18;;;;;;;;;;5013513;28;96782;-70
2022/05/19 23:22:38;;;;;;;18.45;12.40;;;;;;;;;;5010636;28;95211;-70
2022/05/19 23:25:05;;;;;;;20.65;13.57;;;;;;;;;;5005346;28;96836;-71
2022/05/19 23:27:31;;;;;;;20.40;13.98;;;;;;;;;;4992459;28;97446;-71
2022/05/19 23:29:58;;;;;;;37.13;13.88;;;;;;;;;;4991769;28;95298;-71
2022/05/19 23:35:09;;;;;;;29.70;13.80;;;;;;;;;;4995688;28;96104;-72
2022/05/19 23:37:36;;;;;;;21.27;13.60;;;;;;;;;;5011934;28;95923;-71
2022/05/19 23:40:05;;;;;;;20.77;13.20;;;;;;;;;;5012344;28;96857;-71
2022/05/19 23:42:32;;;;;;;27.30;14.32;;;;;;;;;;5001502;28;96238;-71
2022/05/19 23:44:58;;;;;;;18.98;13.10;;;;;;;;;;5004882;28;96014;-71
2022/05/19 23:47:24;;;;;;;37.50;14.75;;;;;;;;;;4992200;28;97467;-71
2022/05/19 23:49:51;;;;;;;23.23;14.35;;;;;;;;;;4991972;28;95341;-71
2022/05/19 23:52:17;;;;;;;31.60;14.23;;;;;;;;;;5008946;28;96762;-71
2022/05/19 23:54:43;;;;;;;29.02;14.68;;;;;;;;;;5011538;28;97261;-71
2022/05/19 23:57:09;;;;;;;30.23;14.95;;;;;;;;;;5011990;28;95052;-71
2022/05/19 23:59:36;;;;;;;18.85;12.93;;;;;;;;;;4994014;28;96732;-71
